createdAt,value
2023-11-01T00:01:12.419Z,79.41
2023-11-01T00:03:39.504Z,79.39
2023-11-01T00:06:07.192Z,79.34
2023-11-01T00:08:34.337Z,79.90
2023-11-01T00:11:01.430Z,79.66
2023-11-01T00:13:28.431Z,79.62
2023-11-01T00:15:55.275Z,79.82
2023-11-01T00:18:22.567Z,79.80
2023-11-01T00:20:49.524Z,79.74
2023-11-01T00:23:16.589Z,79.81
2023-11-01T00:25:43.609Z,80.02
2023-11-01T00:28:10.653Z,79.97
2023-11-01T00:30:37.616Z,79.96
2023-11-01T00:33:04.819Z,80.40
2023-11-01T00:35:32.073Z,80.57
2023-11-01T00:37:59.159Z,80.94
2023-11-01T00:40:26.160Z,80.76
2023-11-01T00:42:53.230Z,80.74
2023-11-01T00:45:20.161Z,80.66
2023-11-01T00:47:47.101Z,80.52
2023-11-01T00:50:14.203Z,80.28
2023-11-01T00:52:41.428Z,80.04
2023-11-01T00:55:08.843Z,80.03
2023-11-01T00:57:36.000Z,80.20
2023-11-01T01:00:03.292Z,80.57
2023-11-01T01:02:30.450Z,80.44
2023-11-01T01:04:57.845Z,80.87
2023-11-01T01:07:24.766Z,81.02
2023-11-01T01:09:51.918Z,80.87
2023-11-01T01:12:18.765Z,81.15
2023-11-01T01:14:45.657Z,81.69
2023-11-01T01:17:12.718Z,81.51
2023-11-01T01:19:39.708Z,81.82
2023-11-01T01:22:06.713Z,81.40
2023-11-01T01:24:33.921Z,81.18
2023-11-01T01:27:00.886Z,80.73
2023-11-01T01:29:27.863Z,80.76
2023-11-01T01:31:54.748Z,80.22
2023-11-01T01:34:21.727Z,79.99
2023-11-01T01:36:48.616Z,79.79
2023-11-01T01:39:16.175Z,79.72
2023-11-01T01:41:43.120Z,79.43
2023-11-01T01:44:10.155Z,79.13
2023-11-01T01:46:37.192Z,78.77
2023-11-01T01:49:04.572Z,78.57
2023-11-01T01:51:32.038Z,78.07
2023-11-01T01:53:59.258Z,77.90
2023-11-01T01:56:26.884Z,77.50
2023-11-01T01:58:54.247Z,76.92
2023-11-01T02:01:34.712Z,76.60
2023-11-01T02:04:06.058Z,76.23
2023-11-01T02:06:33.122Z,75.96
2023-11-01T02:09:00.417Z,75.96
2023-11-01T02:11:27.308Z,75.58
2023-11-01T02:13:54.532Z,75.68
2023-11-01T02:16:21.446Z,75.58
2023-11-01T02:18:48.434Z,75.70
2023-11-01T02:21:15.570Z,76.09
2023-11-01T02:23:44.651Z,76.10
2023-11-01T02:26:11.870Z,75.88
2023-11-01T02:28:38.808Z,75.97
2023-11-01T02:31:06.477Z,76.02
2023-11-01T02:33:33.339Z,75.97
2023-11-01T02:36:00.121Z,76.51
2023-11-01T02:38:27.355Z,76.41
2023-11-01T02:40:54.249Z,76.45
2023-11-01T02:43:21.200Z,78.11
2023-11-01T02:45:48.960Z,79.68
2023-11-01T02:48:15.935Z,80.80
2023-11-01T02:50:42.791Z,81.07
2023-11-01T02:53:09.877Z,81.41
2023-11-01T02:55:36.719Z,82.61
2023-11-01T02:58:04.475Z,82.36
2023-11-01T03:00:32.006Z,83.04
2023-11-01T03:02:59.247Z,82.87
2023-11-01T03:05:28.481Z,83.05
2023-11-01T03:07:55.597Z,83.43
2023-11-01T03:10:22.446Z,83.54
2023-11-01T03:12:49.476Z,83.68
2023-11-01T03:15:16.431Z,83.96
2023-11-01T03:17:43.884Z,83.81
2023-11-01T03:20:12.459Z,84.64
2023-11-01T03:22:40.885Z,85.04
2023-11-01T03:25:09.823Z,85.91
2023-11-01T03:27:36.819Z,86.47
2023-11-01T03:30:04.080Z,86.36
2023-11-01T03:32:31.220Z,87.08
2023-11-01T03:34:59.218Z,87.46
2023-11-01T03:37:27.107Z,88.41
2023-11-01T03:39:54.234Z,88.75
2023-11-01T03:42:22.422Z,89.40
2023-11-01T03:44:52.517Z,89.50
2023-11-01T03:47:19.518Z,90.37
2023-11-01T03:49:46.531Z,91.03
2023-11-01T03:52:13.638Z,91.43
2023-11-01T03:54:40.653Z,91.48
2023-11-01T03:57:07.719Z,92.12
2023-11-01T03:59:35.089Z,92.49
2023-11-01T04:02:02.183Z,92.49
2023-11-01T04:04:29.681Z,93.14
2023-11-01T04:06:56.743Z,93.84
2023-11-01T04:09:23.906Z,94.03
2023-11-01T04:11:50.963Z,93.74
2023-11-01T04:14:18.526Z,93.73
2023-11-01T04:16:45.618Z,93.66
2023-11-01T04:19:13.042Z,93.67
2023-11-01T04:21:40.030Z,93.83
2023-11-01T04:24:11.422Z,93.25
2023-11-01T04:26:38.743Z,93.19
2023-11-01T04:29:05.947Z,92.80
2023-11-01T04:31:33.184Z,92.67
2023-11-01T04:34:00.429Z,91.70
2023-11-01T04:36:27.438Z,91.39
2023-11-01T04:38:54.842Z,89.93
2023-11-01T04:41:22.265Z,89.05
2023-11-01T04:43:49.333Z,88.61
2023-11-01T04:46:16.603Z,88.70
2023-11-01T04:48:43.877Z,88.64
2023-11-01T04:51:11.230Z,89.08
2023-11-01T04:53:39.118Z,89.69
2023-11-01T04:56:07.562Z,89.09
2023-11-01T04:58:36.731Z,88.85
2023-11-01T05:01:06.731Z,88.72
2023-11-01T05:03:36.573Z,88.92
2023-11-01T05:06:04.709Z,89.35
2023-11-01T05:08:31.813Z,90.25
2023-11-01T05:10:59.120Z,90.69
2023-11-01T05:13:26.280Z,90.65
2023-11-01T05:15:53.424Z,90.86
2023-11-01T05:18:20.303Z,91.06
2023-11-01T05:20:47.642Z,90.91
2023-11-01T05:23:14.683Z,90.58
2023-11-01T05:25:41.871Z,90.46
2023-11-01T05:28:09.090Z,90.07
2023-11-01T05:30:36.098Z,89.82
2023-11-01T05:33:03.444Z,89.56
2023-11-01T05:35:30.729Z,89.62
2023-11-01T05:37:58.213Z,89.55
2023-11-01T05:40:25.554Z,89.28
2023-11-01T05:42:52.492Z,89.28
2023-11-01T05:45:21.791Z,88.74
2023-11-01T05:47:53.869Z,88.94
2023-11-01T05:50:26.882Z,88.79
2023-11-01T05:52:57.013Z,88.09
2023-11-01T05:55:33.124Z,87.99
2023-11-01T05:58:09.395Z,87.67
2023-11-01T06:00:37.456Z,87.37
2023-11-01T06:03:08.472Z,87.04
2023-11-01T06:05:37.691Z,87.17
2023-11-01T06:08:05.282Z,87.02
2023-11-01T06:10:32.180Z,86.64
2023-11-01T06:12:59.838Z,86.42
2023-11-01T06:15:26.960Z,86.38
2023-11-01T06:17:54.404Z,86.35
2023-11-01T06:20:21.533Z,85.89
2023-11-01T06:22:48.590Z,85.91
2023-11-01T06:25:18.403Z,85.90
2023-11-01T06:27:45.452Z,85.21
2023-11-01T06:30:12.872Z,85.38
2023-11-01T06:32:39.994Z,85.28
2023-11-01T06:35:07.621Z,85.63
2023-11-01T06:37:34.853Z,85.57
2023-11-01T06:40:06.743Z,85.60
2023-11-01T06:42:33.715Z,85.68
2023-11-01T06:45:00.818Z,85.54
2023-11-01T06:47:27.731Z,85.52
2023-11-01T06:49:54.827Z,85.74
2023-11-01T06:52:21.758Z,85.41
2023-11-01T06:54:48.825Z,85.40
2023-11-01T06:57:15.914Z,84.88
2023-11-01T06:59:43.306Z,83.45
2023-11-01T07:02:10.727Z,83.20
2023-11-01T07:04:37.770Z,83.57
2023-11-01T07:07:05.048Z,83.80
2023-11-01T07:09:33.074Z,84.29
2023-11-01T07:12:00.906Z,83.45
2023-11-01T07:14:28.127Z,83.11
2023-11-01T07:16:55.049Z,82.63
2023-11-01T07:19:21.911Z,82.19
2023-11-01T07:21:49.155Z,82.11
2023-11-01T07:24:15.963Z,81.67
2023-11-01T07:26:43.249Z,81.41
2023-11-01T07:29:10.790Z,81.13
2023-11-01T07:31:38.024Z,81.23
2023-11-01T07:34:05.037Z,81.25
2023-11-01T07:36:32.396Z,80.67
2023-11-01T07:38:59.347Z,80.68
2023-11-01T07:41:26.464Z,80.61
2023-11-01T07:43:53.778Z,79.73
2023-11-01T07:46:20.889Z,79.93
2023-11-01T07:48:48.479Z,79.78
2023-11-01T07:51:15.462Z,79.02
2023-11-01T07:53:42.633Z,77.72
2023-11-01T07:56:09.765Z,76.97
2023-11-01T07:58:36.902Z,76.27
2023-11-01T08:01:04.671Z,76.15
2023-11-01T08:03:32.741Z,75.84
2023-11-01T08:06:00.164Z,75.54
2023-11-01T08:08:27.190Z,75.83
2023-11-01T08:10:54.601Z,76.08
2023-11-01T08:13:21.534Z,76.38
2023-11-01T08:15:48.746Z,76.27
2023-11-01T08:18:16.570Z,76.60
2023-11-01T08:20:44.117Z,76.85
2023-11-01T08:23:11.181Z,77.03
2023-11-01T08:25:38.652Z,76.70
2023-11-01T08:28:06.000Z,77.00
2023-11-01T08:30:32.862Z,76.39
2023-11-01T08:32:59.953Z,77.09
2023-11-01T08:35:27.214Z,76.45
2023-11-01T08:37:54.469Z,75.59
2023-11-01T08:40:21.442Z,74.91
2023-11-01T08:42:48.527Z,74.29
2023-11-01T08:45:16.110Z,73.95
2023-11-01T08:47:45.871Z,74.22
2023-11-01T08:50:14.739Z,72.78
2023-11-01T08:52:44.335Z,71.62
2023-11-01T08:55:15.703Z,71.91
2023-11-01T08:57:43.790Z,71.58
2023-11-01T09:00:11.678Z,71.02
2023-11-01T09:02:38.914Z,70.40
2023-11-01T09:05:06.097Z,70.04
2023-11-01T09:07:33.135Z,70.12
2023-11-01T09:10:02.046Z,69.90
2023-11-01T09:12:30.083Z,70.86
2023-11-01T09:14:57.121Z,71.37
2023-11-01T09:17:24.495Z,71.53
2023-11-01T09:19:52.163Z,69.85
2023-11-01T09:22:19.401Z,70.81
2023-11-01T09:24:46.860Z,71.71
2023-11-01T09:27:13.841Z,71.90
2023-11-01T09:29:40.838Z,71.91
2023-11-01T09:32:08.425Z,71.46
2023-11-01T09:34:35.845Z,71.46
2023-11-01T09:37:03.229Z,71.26
2023-11-01T09:39:31.814Z,71.46
2023-11-01T09:42:06.900Z,71.56
2023-11-01T09:44:34.584Z,71.27
2023-11-01T09:47:01.589Z,68.69
2023-11-01T09:49:31.960Z,68.40
2023-11-01T09:52:01.649Z,67.39
2023-11-01T09:54:28.813Z,67.04
2023-11-01T09:56:57.990Z,66.35
2023-11-01T09:59:26.081Z,65.87
2023-11-01T10:01:53.391Z,64.55
2023-11-01T10:04:20.934Z,63.64
2023-11-01T10:06:48.335Z,63.56
2023-11-01T10:09:15.335Z,64.54
2023-11-01T10:11:43.685Z,64.49
2023-11-01T10:14:10.898Z,65.57
2023-11-01T10:16:40.271Z,64.95
2023-11-01T10:19:08.181Z,64.17
2023-11-01T10:21:35.234Z,64.21
2023-11-01T10:24:04.512Z,63.00
2023-11-01T10:26:32.435Z,62.25
2023-11-01T10:29:01.035Z,63.61
2023-11-01T10:31:28.035Z,64.59
2023-11-01T10:33:55.843Z,62.66
2023-11-01T10:36:22.973Z,62.68
2023-11-01T10:38:52.835Z,61.62
2023-11-01T10:41:20.730Z,62.25
2023-11-01T10:43:52.074Z,61.21
2023-11-01T10:46:20.870Z,60.60
2023-11-01T10:48:48.582Z,59.70
2023-11-01T10:51:16.040Z,58.08
2023-11-01T10:53:43.723Z,57.70
2023-11-01T10:56:11.251Z,57.98
2023-11-01T10:58:43.805Z,57.94
2023-11-01T11:01:25.759Z,57.63
2023-11-01T11:04:28.052Z,57.32
2023-11-01T11:07:24.230Z,57.35
2023-11-01T11:10:27.911Z,56.94
2023-11-01T11:13:10.454Z,56.97
2023-11-01T11:15:50.074Z,56.21
2023-11-01T11:18:25.645Z,56.34
2023-11-01T11:20:53.998Z,55.20
2023-11-01T11:23:32.700Z,56.27
2023-11-01T11:26:01.498Z,57.81
2023-11-01T11:28:39.478Z,57.78
2023-11-01T11:31:08.470Z,58.13
2023-11-01T11:33:50.868Z,57.76
2023-11-01T11:36:19.980Z,58.36
2023-11-01T11:38:54.094Z,59.25
2023-11-01T11:41:30.037Z,59.05
2023-11-01T11:44:13.726Z,59.48
2023-11-01T11:46:46.447Z,59.84
2023-11-01T11:49:30.300Z,58.49
2023-11-01T11:52:08.618Z,58.19
2023-11-01T11:54:36.231Z,58.85
2023-11-01T11:57:10.019Z,59.24
2023-11-01T11:59:37.678Z,59.04
2023-11-01T12:02:11.414Z,59.48
2023-11-01T12:04:41.475Z,59.56
2023-11-01T12:07:09.216Z,59.79
2023-11-01T12:09:36.264Z,59.41
2023-11-01T12:12:14.589Z,59.57
2023-11-01T12:14:42.333Z,59.00
2023-11-01T12:17:09.646Z,59.01
2023-11-01T12:19:48.224Z,59.10
2023-11-01T12:22:16.987Z,58.85
2023-11-01T12:24:47.909Z,58.77
2023-11-01T12:27:16.660Z,59.45
2023-11-01T12:29:47.762Z,59.74
2023-11-01T12:32:28.826Z,59.83
2023-11-01T12:34:59.029Z,60.23
2023-11-01T12:37:31.362Z,60.07
2023-11-01T12:40:12.272Z,59.42
2023-11-01T12:42:47.690Z,59.49
2023-11-01T12:45:16.308Z,59.39
2023-11-01T12:47:43.406Z,59.62
2023-11-01T12:50:12.225Z,59.42
2023-11-01T12:52:41.067Z,59.80
2023-11-01T12:55:09.958Z,59.41
2023-11-01T12:57:43.855Z,58.54
2023-11-01T13:00:15.107Z,59.49
2023-11-01T13:02:42.447Z,60.90
2023-11-01T13:05:10.211Z,60.76
2023-11-01T13:07:37.609Z,60.49
2023-11-01T13:10:04.974Z,60.43
2023-11-01T13:12:32.932Z,61.34
2023-11-01T13:14:59.957Z,61.49
2023-11-01T13:17:27.567Z,62.07
2023-11-01T13:19:57.063Z,62.26
2023-11-01T13:22:25.457Z,62.29
2023-11-01T13:24:52.408Z,61.75
2023-11-01T13:27:19.631Z,61.93
2023-11-01T13:29:49.545Z,61.91
2023-11-01T13:32:16.765Z,61.93
2023-11-01T13:34:44.880Z,62.49
2023-11-01T13:37:13.869Z,62.36
2023-11-01T13:39:40.766Z,61.79
2023-11-01T13:42:08.420Z,60.78
2023-11-01T13:44:35.866Z,61.11
2023-11-01T13:47:03.027Z,60.79
2023-11-01T13:49:30.185Z,60.31
2023-11-01T13:51:57.836Z,60.44
2023-11-01T13:54:24.739Z,60.21
2023-11-01T13:56:51.859Z,60.20
2023-11-01T13:59:18.715Z,59.72
2023-11-01T14:01:46.203Z,59.59
2023-11-01T14:04:15.683Z,59.59
2023-11-01T14:06:42.994Z,59.07
2023-11-01T14:09:12.709Z,58.81
2023-11-01T14:11:40.089Z,58.73
2023-11-01T14:14:07.270Z,58.43
2023-11-01T14:16:34.214Z,58.34
2023-11-01T14:19:01.113Z,57.36
2023-11-01T14:21:28.675Z,57.52
2023-11-01T14:23:55.855Z,56.78
2023-11-01T14:26:23.663Z,56.92
2023-11-01T14:28:50.621Z,56.22
2023-11-01T14:31:20.653Z,56.12
2023-11-01T14:33:47.779Z,55.79
2023-11-01T14:36:14.845Z,56.32
2023-11-01T14:38:42.024Z,55.74
2023-11-01T14:41:08.867Z,56.02
2023-11-01T14:43:35.949Z,55.55
2023-11-01T14:46:04.718Z,55.98
2023-11-01T14:48:32.031Z,56.10
2023-11-01T14:50:59.132Z,56.24
2023-11-01T14:53:26.078Z,56.66
2023-11-01T14:55:53.253Z,56.82
2023-11-01T14:58:20.432Z,56.54
2023-11-01T15:00:48.209Z,56.48
2023-11-01T15:03:15.376Z,56.79
2023-11-01T15:05:43.323Z,56.92
2023-11-01T15:08:10.277Z,56.96
2023-11-01T15:10:37.613Z,56.79
2023-11-01T15:13:04.921Z,56.93
2023-11-01T15:15:32.519Z,57.33
2023-11-01T15:17:59.553Z,57.53
2023-11-01T15:20:27.960Z,57.65
2023-11-01T15:22:54.917Z,58.06
2023-11-01T15:25:21.979Z,58.19
2023-11-01T15:27:50.123Z,58.11
2023-11-01T15:30:20.369Z,58.06
2023-11-01T15:32:47.544Z,58.35
2023-11-01T15:35:14.835Z,58.43
2023-11-01T15:37:42.411Z,58.60
2023-11-01T15:40:09.880Z,58.53
2023-11-01T15:42:37.120Z,58.93
2023-11-01T15:45:05.384Z,58.96
2023-11-01T15:47:32.366Z,58.99
2023-11-01T15:49:59.193Z,59.35
2023-11-01T15:52:26.198Z,59.66
2023-11-01T15:54:53.870Z,59.73
2023-11-01T15:57:23.047Z,60.20
2023-11-01T15:59:51.398Z,60.33
2023-11-01T16:02:18.372Z,60.52
2023-11-01T16:04:45.560Z,60.60
2023-11-01T16:07:12.747Z,60.89
2023-11-01T16:09:39.881Z,61.58
2023-11-01T16:12:07.328Z,61.80
2023-11-01T16:14:34.636Z,62.39
2023-11-01T16:17:03.172Z,63.14
2023-11-01T16:19:30.400Z,63.48
2023-11-01T16:21:57.318Z,63.59
2023-11-01T16:24:24.611Z,63.62
2023-11-01T16:26:51.432Z,63.82
2023-11-01T16:29:18.471Z,64.08
2023-11-01T16:31:45.626Z,63.94
2023-11-01T16:34:12.909Z,63.66
2023-11-01T16:36:39.953Z,64.04
2023-11-01T16:39:07.506Z,64.43
2023-11-01T16:41:35.212Z,64.75
2023-11-01T16:44:02.300Z,64.84
2023-11-01T16:46:29.449Z,64.83
2023-11-01T16:48:56.539Z,64.65
2023-11-01T16:51:23.524Z,64.46
2023-11-01T16:53:50.842Z,64.80
2023-11-01T16:56:18.883Z,65.31
2023-11-01T16:58:46.066Z,65.83
2023-11-01T17:01:12.901Z,66.35
2023-11-01T17:03:39.941Z,66.31
2023-11-01T17:06:07.706Z,66.50
2023-11-01T17:08:34.832Z,66.22
2023-11-01T17:11:01.924Z,66.27
2023-11-01T17:13:28.913Z,66.51
2023-11-01T17:15:57.377Z,66.84
2023-11-01T17:18:25.137Z,67.35
2023-11-01T17:20:53.356Z,67.50
2023-11-01T17:23:20.431Z,67.72
2023-11-01T17:25:50.514Z,68.10
2023-11-01T17:28:21.937Z,68.52
2023-11-01T17:30:49.334Z,69.29
2023-11-01T17:33:16.640Z,69.23
2023-11-01T17:35:43.826Z,69.67
2023-11-01T17:38:41.792Z,69.88
2023-11-01T17:41:10.309Z,70.49
2023-11-01T17:43:52.167Z,70.93
2023-11-01T17:46:19.568Z,71.86
2023-11-01T17:48:47.471Z,71.78
2023-11-01T17:51:15.247Z,72.00
2023-11-01T17:53:42.220Z,71.74
2023-11-01T17:56:09.677Z,71.68
2023-11-01T17:58:36.835Z,71.87
2023-11-01T18:01:05.000Z,72.22
2023-11-01T18:03:36.600Z,72.46
2023-11-01T18:06:03.968Z,72.82
2023-11-01T18:08:34.008Z,73.02
2023-11-01T18:11:04.555Z,72.89
2023-11-01T18:13:36.876Z,73.42
2023-11-01T18:16:06.770Z,73.30
2023-11-01T18:18:40.277Z,73.06
2023-11-01T18:21:21.505Z,73.69
2023-11-01T18:24:04.595Z,74.10
2023-11-01T18:26:34.287Z,73.27
2023-11-01T18:29:04.164Z,73.49
2023-11-01T18:31:37.953Z,73.93
2023-11-01T18:34:07.670Z,73.82
2023-11-01T18:36:40.513Z,73.60
2023-11-01T18:39:12.287Z,74.00
2023-11-01T18:41:43.955Z,72.99
2023-11-01T18:44:34.192Z,72.41
2023-11-01T18:47:01.832Z,72.96
2023-11-01T18:49:50.464Z,73.32
2023-11-01T18:52:18.482Z,74.03
2023-11-01T18:54:47.971Z,74.10
2023-11-01T18:57:18.195Z,74.66
2023-11-01T18:59:45.351Z,74.68
2023-11-01T19:02:34.249Z,74.66
2023-11-01T19:05:02.315Z,74.75
2023-11-01T19:07:32.456Z,74.21
2023-11-01T19:09:59.740Z,74.21
2023-11-01T19:12:33.778Z,74.23
2023-11-01T19:15:01.127Z,74.30
2023-11-01T19:17:33.022Z,74.06
2023-11-01T19:20:00.264Z,74.06
2023-11-01T19:22:27.540Z,74.42
2023-11-01T19:24:54.847Z,74.46
2023-11-01T19:27:24.185Z,74.39
2023-11-01T19:29:51.663Z,74.60
2023-11-01T19:32:18.540Z,74.17
2023-11-01T19:34:45.501Z,73.53
2023-11-01T19:37:12.436Z,72.99
2023-11-01T19:39:39.360Z,73.57
2023-11-01T19:42:06.745Z,73.71
2023-11-01T19:44:33.771Z,73.83
2023-11-01T19:47:00.916Z,73.60
2023-11-01T19:49:28.511Z,73.81
2023-11-01T19:51:55.663Z,73.73
2023-11-01T19:54:22.746Z,73.79
2023-11-01T19:56:50.104Z,74.65
2023-11-01T19:59:17.363Z,74.90
2023-11-01T20:01:44.688Z,74.44
2023-11-01T20:04:11.565Z,74.78
2023-11-01T20:06:38.638Z,75.21
2023-11-01T20:09:08.041Z,75.41
2023-11-01T20:11:34.933Z,75.87
2023-11-01T20:14:02.388Z,76.51
2023-11-01T20:16:31.176Z,77.15
2023-11-01T20:18:59.567Z,77.45
2023-11-01T20:21:26.647Z,76.86
2023-11-01T20:23:54.401Z,77.28
2023-11-01T20:26:22.072Z,76.50
2023-11-01T20:28:49.072Z,76.93
2023-11-01T20:31:15.959Z,77.62
2023-11-01T20:33:43.030Z,78.07
2023-11-01T20:36:10.623Z,78.29
2023-11-01T20:38:39.711Z,77.68
2023-11-01T20:41:07.338Z,77.30
2023-11-01T20:43:34.115Z,77.71
2023-11-01T20:46:00.899Z,77.62
2023-11-01T20:48:28.051Z,76.18
2023-11-01T20:50:55.153Z,76.47
2023-11-01T20:53:30.975Z,76.57
2023-11-01T20:55:57.991Z,77.59
2023-11-01T20:58:29.539Z,78.48
2023-11-01T21:00:59.059Z,79.25
2023-11-01T21:03:27.991Z,79.54
2023-11-01T21:05:54.985Z,80.18
2023-11-01T21:08:22.092Z,80.17
2023-11-01T21:10:49.150Z,81.57
2023-11-01T21:13:16.302Z,81.76
2023-11-01T21:15:43.657Z,81.56
2023-11-01T21:18:11.809Z,81.83
2023-11-01T21:20:38.806Z,81.11
2023-11-01T21:23:05.784Z,81.19
2023-11-01T21:25:32.948Z,80.68
2023-11-01T21:28:01.471Z,80.41
2023-11-01T21:30:28.573Z,80.77
2023-11-01T21:32:55.653Z,81.51
2023-11-01T21:35:31.161Z,81.87
2023-11-01T21:38:04.248Z,81.68
2023-11-01T21:40:33.223Z,81.39
2023-11-01T21:43:00.354Z,81.61
2023-11-01T21:45:40.377Z,81.67
2023-11-01T21:48:07.415Z,81.41
2023-11-01T21:50:57.787Z,80.97
2023-11-01T21:53:27.565Z,80.70
2023-11-01T21:55:56.007Z,80.87
2023-11-01T21:58:26.334Z,80.37
2023-11-01T22:01:05.378Z,80.29
2023-11-01T22:03:36.030Z,79.66
2023-11-01T22:06:05.253Z,80.25
2023-11-01T22:08:53.729Z,79.87
2023-11-01T22:11:20.943Z,79.91
2023-11-01T22:13:48.062Z,79.68
2023-11-01T22:16:35.396Z,79.73
2023-11-01T22:19:07.024Z,79.50
2023-11-01T22:21:35.861Z,78.91
2023-11-01T22:24:04.862Z,78.44
2023-11-01T22:26:33.394Z,78.40
2023-11-01T22:29:05.625Z,78.70
2023-11-01T22:31:53.416Z,79.10
2023-11-01T22:34:23.446Z,79.40
2023-11-01T22:36:52.597Z,79.73
2023-11-01T22:39:41.451Z,79.95
2023-11-01T22:42:19.165Z,79.60
2023-11-01T22:44:46.579Z,79.70
2023-11-01T22:47:14.360Z,79.89
2023-11-01T22:49:41.856Z,79.97
2023-11-01T22:52:09.282Z,79.92
2023-11-01T22:54:36.644Z,79.69
2023-11-01T22:57:04.062Z,80.19
2023-11-01T22:59:31.374Z,80.47
2023-11-01T23:01:58.280Z,80.53
2023-11-01T23:04:25.600Z,80.66
2023-11-01T23:06:52.941Z,80.71
2023-11-01T23:09:20.547Z,80.79
2023-11-01T23:11:47.755Z,80.58
2023-11-01T23:14:14.860Z,80.46
2023-11-01T23:16:42.987Z,80.25
2023-11-01T23:19:11.777Z,80.46
2023-11-01T23:21:39.982Z,80.41
2023-11-01T23:24:11.378Z,80.28
2023-11-01T23:26:55.408Z,79.56
2023-11-01T23:29:30.562Z,79.22
2023-11-01T23:31:58.767Z,79.16
2023-11-01T23:34:48.565Z,79.49
2023-11-01T23:37:22.472Z,80.27
2023-11-01T23:39:51.647Z,80.39
2023-11-01T23:42:20.533Z,80.87
2023-11-01T23:44:48.751Z,81.06
2023-11-01T23:47:45.074Z,81.13
2023-11-01T23:50:32.885Z,81.25
2023-11-01T23:53:05.569Z,81.28
2023-11-01T23:55:33.587Z,80.36
2023-11-01T23:58:56.660Z,80.48
